Terminal Aerodrome Forecast
Issued by NWS

Home | Current Version | Previous Version | Text Only | Print | Product List | Glossary Off
Versions: 1 2 3 4 5 6 7 8 9 10 11 12 13 14 15

000
FTUS43 KBIS 151700 RRA
TAFJMS
TAF
KJMS 151741Z 1518/1618 15017G25KT P6SM BKN100
     FM160000 12018G25KT P6SM BKN070
     FM160200 09019G26KT 5SM -SN OVC035
     FM160800 08017G25KT 3SM -SN OVC012=

USA.gov is the U.S. government's official web portal to all federal, state and local government web resources and services.